Aviation Digital Data Service (ADDS)

Output produced by METARs form (0741 UTC 23 April 2018)
found at http://aviationweather.gov/adds/metars/
 
METAR text: LFLP 230730Z AUTO 00000KT CAVOK 16/09 Q1019 NOSIG
Conditions at: LFLP (ANNECY/MEYTHET , FR) observed 0730 UTC 23 April 2018
Temperature: 16.0°C (61°F)
Dewpoint: 9.0°C (48°F) [RH = 63%]
Pressure (altimeter): 30.09 inches Hg (1019.0 mb)
Winds: calm
Visibility: 6 or more miles (10+ km)
Ceiling: ceiling and visibility are OK
Clouds: unknown
Weather: no significant weather observed at this time

Forecast for: LFLP (ANNECY/MEYTHET , FR)
Text: TAF LFLP 230200Z 2303/2403 VRB05KT CAVOK
Forecast period: 0300 UTC 23 April 2018 to 0300 UTC 24 April 2018
Forecast type: FROM: standard forecast or significant change
Winds: variable direction winds at 6 MPH (5 knots; 2.6 m/s)
Visibility: 6 or more miles (10+ km)
Clouds: not forecast
Weather: NSW  (no significant weather)
Forecast for: LFLP (ANNECY/MEYTHET , FR)
Text: TAF LFLP 230200Z 2303/2403 VRB05KT CAVOK
Forecast period: 0300 UTC 23 April 2018 to 0300 UTC 24 April 2018
Forecast type: FROM: standard forecast or significant change
Winds: variable direction winds at 6 MPH (5 knots; 2.6 m/s)
Visibility: 6 or more miles (10+ km)
Clouds: not forecast
Weather: NSW  (no significant weather)
Forecast for: LFLP (ANNECY/MEYTHET , FR)
Text: TAF LFLP 230200Z 2303/2403 VRB05KT CAVOK
Forecast period: 1200 to 1800 UTC 23 April 2018
Forecast type: TEMPORARY: The following changes expected for less than half the time period
Visibility: 3 miles (5 km)
Ceiling: 4000 feet AGL
Clouds: broken clouds at 4000 feet AGL
Weather: SHRA  (rain showers)
Forecast for: LFLP (ANNECY/MEYTHET , FR)
Text: TAF LFLP 230200Z 2303/2403 VRB05KT CAVOK
Forecast period: 1200 to 1800 UTC 23 April 2018
Forecast type: TEMPORARY: The following changes expected for less than half the time period
Visibility: 3 miles (5 km)
Ceiling: 4000 feet AGL
Clouds: broken clouds at 4000 feet AGL
Weather: SHRA  (rain showers)
Forecast for: LFLP (ANNECY/MEYTHET , FR)
Text: TAF LFLP 230200Z 2303/2403 VRB05KT CAVOK
Forecast period: 1200 to 1600 UTC 23 April 2018
Forecast type: TEMPORARY: The following changes expected for less than half the time period
Winds: variable direction winds at 23 MPH (20 knots; 10.4 m/s)
gusting to 34 MPH (30 knots; 15.6 m/s)
Visibility: 3 miles (5 km)
Ceiling: 4000 feet AGL
Clouds: broken clouds at 4000 feet AGL
Weather: TSRA  (rain associated with thunderstorm(s))
Forecast for: LFLP (ANNECY/MEYTHET , FR)
Text: TAF LFLP 230200Z 2303/2403 VRB05KT CAVOK
Forecast period: 1200 to 1600 UTC 23 April 2018
Forecast type: TEMPORARY: The following changes expected for less than half the time period
Winds: variable direction winds at 23 MPH (20 knots; 10.4 m/s)
gusting to 34 MPH (30 knots; 15.6 m/s)
Visibility: 3 miles (5 km)
Ceiling: 4000 feet AGL
Clouds: broken clouds at 4000 feet AGL
Weather: TSRA  (rain associated with thunderstorm(s))